PWSweather.com
Personal Weather Stations
Station Observations
KVAGLENALL
West Henrico, Glen Allen, VA 23060-6503

West HenricoGlen Allen, VA 23060-6503

Lat: 37.6554, Lon: -77.5693

Elevation: 273

Station Type: Davis Vantage Pro II

www.glenallenweather.com

High Low Average
Temperature 61.2°F16.2°C 36.4°F2.4°C 51.5°F10.8°C
Dew Point 49.8°F9.9°C 34.3°F1.3°C 44.3°F6.8°C
Winds 15.0 mph 24.1 kmh Calm Calm 6.0 mph SSW9.7 kmh SSW
Wind Gusts 15.1 mph24.3 kmh 4.0 mph6.4 kmh 9.0 mph14.5 kmh
Humidity 93% 65% 77%
Pressure 30.45 in1031.2 mb 30.14 in1020.7 mb -
Precipitation 0.00 in0.0 mm - -
Hour Temp Dew Point Humidity Winds Wind Gusts Pressure Precip Precip Rate Daily Precip Total
07:15 AM 36.4°F2.4°C 34.3°F1.3°C 92% 7.0 mph SSW11.3 kmh SSW 7.1 mph11.4 kmh 30.44 in1030.8 mb 0.00 in0.0 mm 0.00 in0.0 mm 0.00 in0.0 mm
07:30 AM 36.5°F2.5°C 34.7°F1.5°C 93% 2.0 mph S3.2 kmh S 5.1 mph8.2 kmh 30.44 in1030.8 mb 0.00 in0.0 mm 0.00 in0.0 mm 0.00 in0.0 mm
07:45 AM 36.9°F2.7°C 34.8°F1.6°C 92% 4.0 mph SSW6.4 kmh SSW 6.1 mph9.8 kmh 30.45 in1031.2 mb 0.00 in0.0 mm 0.00 in0.0 mm 0.00 in0.0 mm
08:00 AM 37.8°F3.2°C 35.7°F2.1°C 92% 5.0 mph SSE8.0 kmh SSE 6.1 mph9.8 kmh 30.44 in1030.8 mb 0.00 in0.0 mm 0.00 in0.0 mm 0.00 in0.0 mm
08:15 AM 39.9°F4.4°C 36.4°F2.4°C 87% 8.0 mph SW12.9 kmh SW 8.1 mph13.0 kmh 30.45 in1031.2 mb 0.00 in0.0 mm 0.00 in0.0 mm 0.00 in0.0 mm
08:30 AM 40.8°F4.9°C 37.0°F2.8°C 86% 7.0 mph S11.3 kmh S 10.1 mph16.3 kmh 30.45 in1031.2 mb 0.00 in0.0 mm 0.00 in0.0 mm 0.00 in0.0 mm
08:45 AM 42.5°F5.8°C 37.7°F3.2°C 83% 6.0 mph S9.7 kmh S 8.1 mph13.0 kmh 30.44 in1030.8 mb 0.00 in0.0 mm 0.00 in0.0 mm 0.00 in0.0 mm
09:00 AM 43.0°F6.1°C 37.6°F3.1°C 81% 11.0 mph SSW17.7 kmh SSW 11.1 mph17.9 kmh 30.43 in1030.5 mb 0.00 in0.0 mm 0.00 in0.0 mm 0.00 in0.0 mm
09:15 AM 43.7°F6.5°C 38.0°F3.3°C 80% 7.0 mph SSW11.3 kmh SSW 11.1 mph17.9 kmh 30.42 in1030.1 mb 0.00 in0.0 mm 0.00 in0.0 mm 0.00 in0.0 mm
09:30 AM 44.1°F6.7°C 37.7°F3.2°C 78% 8.0 mph SSW12.9 kmh SSW 11.1 mph17.9 kmh 30.43 in1030.5 mb 0.00 in0.0 mm 0.00 in0.0 mm 0.00 in0.0 mm
09:45 AM 43.9°F6.6°C 37.5°F3.1°C 78% 8.0 mph SW12.9 kmh SW 12.1 mph19.5 kmh 30.42 in1030.1 mb 0.00 in0.0 mm 0.00 in0.0 mm 0.00 in0.0 mm
10:00 AM 43.8°F6.6°C 37.7°F3.2°C 79% 6.0 mph S9.7 kmh S 11.1 mph17.9 kmh 30.42 in1030.1 mb 0.00 in0.0 mm 0.00 in0.0 mm 0.00 in0.0 mm
10:15 AM 44.9°F7.2°C 38.8°F3.8°C 79% Calm Calm 4.0 mph6.4 kmh 30.42 in1030.1 mb 0.00 in0.0 mm 0.00 in0.0 mm 0.00 in0.0 mm
10:30 AM 45.5°F7.5°C 39.1°F3.9°C 78% 4.0 mph S6.4 kmh S 5.1 mph8.2 kmh 30.41 in1029.8 mb 0.00 in0.0 mm 0.00 in0.0 mm 0.00 in0.0 mm
10:45 AM 46.9°F8.3°C 39.8°F4.3°C 76% 2.0 mph SW3.2 kmh SW 7.1 mph11.4 kmh 30.41 in1029.8 mb 0.00 in0.0 mm 0.00 in0.0 mm 0.00 in0.0 mm
11:00 AM 47.1°F8.4°C 39.6°F4.2°C 75% 9.0 mph SW14.5 kmh SW 10.1 mph16.3 kmh 30.40 in1029.5 mb 0.00 in0.0 mm 0.00 in0.0 mm 0.00 in0.0 mm
11:15 AM 48.2°F9.0°C 40.4°F4.7°C 74% 5.0 mph SW8.0 kmh SW 9.1 mph14.6 kmh 30.40 in1029.5 mb 0.00 in0.0 mm 0.00 in0.0 mm 0.00 in0.0 mm
11:30 AM 48.9°F9.4°C 41.0°F5.0°C 74% 6.0 mph SW9.7 kmh SW 10.1 mph16.3 kmh 30.39 in1029.1 mb 0.00 in0.0 mm 0.00 in0.0 mm 0.00 in0.0 mm
11:45 AM 50.3°F10.2°C 41.9°F5.5°C 73% 6.0 mph WSW9.7 kmh WSW 6.1 mph9.8 kmh 30.39 in1029.1 mb 0.00 in0.0 mm 0.00 in0.0 mm 0.00 in0.0 mm
12:00 PM 50.4°F10.2°C 41.7°F5.4°C 72% 4.0 mph SSW6.4 kmh SSW 9.1 mph14.6 kmh 30.38 in1028.8 mb 0.00 in0.0 mm 0.00 in0.0 mm 0.00 in0.0 mm
12:15 PM 50.8°F10.4°C 42.1°F5.6°C 72% 9.0 mph SSW14.5 kmh SSW 10.1 mph16.3 kmh 30.37 in1028.4 mb 0.00 in0.0 mm 0.00 in0.0 mm 0.00 in0.0 mm
12:30 PM 52.1°F11.2°C 43.3°F6.3°C 72% 4.0 mph SW6.4 kmh SW 6.1 mph9.8 kmh 30.36 in1028.1 mb 0.00 in0.0 mm 0.00 in0.0 mm 0.00 in0.0 mm
12:45 PM 52.6°F11.4°C 43.4°F6.3°C 71% 8.0 mph SW12.9 kmh SW 11.1 mph17.9 kmh 30.34 in1027.4 mb 0.00 in0.0 mm 0.00 in0.0 mm 0.00 in0.0 mm
01:00 PM 53.3°F11.8°C 44.1°F6.7°C 71% 6.0 mph SW9.7 kmh SW 10.1 mph16.3 kmh 30.34 in1027.4 mb 0.00 in0.0 mm 0.00 in0.0 mm 0.00 in0.0 mm
01:15 PM 55.1°F12.8°C 45.5°F7.5°C 70% 4.0 mph S6.4 kmh S 7.1 mph11.4 kmh 30.32 in1026.8 mb 0.00 in0.0 mm 0.00 in0.0 mm 0.00 in0.0 mm
01:30 PM 55.5°F13.1°C 45.5°F7.5°C 69% 6.0 mph SSW9.7 kmh SSW 8.1 mph13.0 kmh 30.31 in1026.4 mb 0.00 in0.0 mm 0.00 in0.0 mm 0.00 in0.0 mm
01:45 PM 56.1°F13.4°C 45.7°F7.6°C 68% 3.0 mph SSW4.8 kmh SSW 7.1 mph11.4 kmh 30.30 in1026.1 mb 0.00 in0.0 mm 0.00 in0.0 mm 0.00 in0.0 mm
02:00 PM 56.9°F13.8°C 46.1°F7.8°C 67% 7.0 mph S11.3 kmh S 7.1 mph11.4 kmh 30.30 in1026.1 mb 0.00 in0.0 mm 0.00 in0.0 mm 0.00 in0.0 mm
02:15 PM 57.7°F14.3°C 47.6°F8.7°C 69% 7.0 mph SW11.3 kmh SW 11.1 mph17.9 kmh 30.29 in1025.7 mb 0.00 in0.0 mm 0.00 in0.0 mm 0.00 in0.0 mm
02:30 PM 58.8°F14.9°C 48.3°F9.1°C 68% 3.0 mph SSW4.8 kmh SSW 6.1 mph9.8 kmh 30.28 in1025.4 mb 0.00 in0.0 mm 0.00 in0.0 mm 0.00 in0.0 mm
02:45 PM 59.6°F15.3°C 47.8°F8.8°C 65% 4.0 mph SSE6.4 kmh SSE 7.1 mph11.4 kmh 30.27 in1025.1 mb 0.00 in0.0 mm 0.00 in0.0 mm 0.00 in0.0 mm
03:00 PM 60.1°F15.6°C 49.1°F9.5°C 67% 4.0 mph S6.4 kmh S 8.1 mph13.0 kmh 30.26 in1024.7 mb 0.00 in0.0 mm 0.00 in0.0 mm 0.00 in0.0 mm
03:15 PM 60.2°F15.7°C 49.2°F9.6°C 67% 7.0 mph S11.3 kmh S 9.1 mph14.6 kmh 30.26 in1024.7 mb 0.00 in0.0 mm 0.00 in0.0 mm 0.00 in0.0 mm
03:30 PM 61.2°F16.2°C 49.8°F9.9°C 66% 10.0 mph SSW16.1 kmh SSW 10.1 mph16.3 kmh 30.25 in1024.4 mb 0.00 in0.0 mm 0.00 in0.0 mm 0.00 in0.0 mm
03:45 PM 60.7°F15.9°C 49.3°F9.6°C 66% 4.0 mph S6.4 kmh S 4.0 mph6.4 kmh 30.25 in1024.4 mb 0.00 in0.0 mm 0.00 in0.0 mm 0.00 in0.0 mm
04:00 PM 60.2°F15.7°C 49.2°F9.6°C 67% 3.0 mph SW4.8 kmh SW 9.1 mph14.6 kmh 30.25 in1024.4 mb 0.00 in0.0 mm 0.00 in0.0 mm 0.00 in0.0 mm
04:15 PM 60.4°F15.8°C 49.4°F9.7°C 67% 7.0 mph S11.3 kmh S 10.1 mph16.3 kmh 30.24 in1024.0 mb 0.00 in0.0 mm 0.00 in0.0 mm 0.00 in0.0 mm
04:30 PM 60.1°F15.6°C 49.1°F9.5°C 67% 10.0 mph SSW16.1 kmh SSW 10.1 mph16.3 kmh 30.23 in1023.7 mb 0.00 in0.0 mm 0.00 in0.0 mm 0.00 in0.0 mm
04:45 PM 59.2°F15.1°C 48.7°F9.3°C 68% 2.0 mph S3.2 kmh S 10.1 mph16.3 kmh 30.24 in1024.0 mb 0.00 in0.0 mm 0.00 in0.0 mm 0.00 in0.0 mm
05:00 PM 57.9°F14.4°C 48.2°F9.0°C 70% 15.0 mph S24.1 kmh S 15.1 mph24.3 kmh 30.24 in1024.0 mb 0.00 in0.0 mm 0.00 in0.0 mm 0.00 in0.0 mm
05:15 PM 56.4°F13.6°C 47.5°F8.6°C 72% 4.0 mph S6.4 kmh S 8.1 mph13.0 kmh 30.23 in1023.7 mb 0.00 in0.0 mm 0.00 in0.0 mm 0.00 in0.0 mm
05:30 PM 55.5°F13.1°C 47.7°F8.7°C 75% 7.0 mph SSW11.3 kmh SSW 12.1 mph19.5 kmh 30.23 in1023.7 mb 0.00 in0.0 mm 0.00 in0.0 mm 0.00 in0.0 mm
05:45 PM 55.1°F12.8°C 47.7°F8.7°C 76% 5.0 mph SW8.0 kmh SW 6.1 mph9.8 kmh 30.24 in1024.0 mb 0.00 in0.0 mm 0.00 in0.0 mm 0.00 in0.0 mm
06:00 PM 54.8°F12.7°C 47.7°F8.7°C 77% 1.0 mph SW1.6 kmh SW 5.1 mph8.2 kmh 30.23 in1023.7 mb 0.00 in0.0 mm 0.00 in0.0 mm 0.00 in0.0 mm
06:15 PM 54.5°F12.5°C 47.4°F8.6°C 77% 2.0 mph SW3.2 kmh SW 8.1 mph13.0 kmh 30.23 in1023.7 mb 0.00 in0.0 mm 0.00 in0.0 mm 0.00 in0.0 mm
06:30 PM 53.9°F12.2°C 47.2°F8.4°C 78% 11.0 mph SW17.7 kmh SW 11.1 mph17.9 kmh 30.23 in1023.7 mb 0.00 in0.0 mm 0.00 in0.0 mm 0.00 in0.0 mm
06:45 PM 53.4°F11.9°C 46.7°F8.2°C 78% 6.0 mph S9.7 kmh S 10.1 mph16.3 kmh 30.22 in1023.4 mb 0.00 in0.0 mm 0.00 in0.0 mm 0.00 in0.0 mm
07:00 PM 53.1°F11.7°C 46.4°F8.0°C 78% 7.0 mph SSW11.3 kmh SSW 8.1 mph13.0 kmh 30.22 in1023.4 mb 0.00 in0.0 mm 0.00 in0.0 mm 0.00 in0.0 mm
07:15 PM 52.6°F11.4°C 46.3°F7.9°C 79% 6.0 mph SW9.7 kmh SW 10.1 mph16.3 kmh 30.22 in1023.4 mb 0.00 in0.0 mm 0.00 in0.0 mm 0.00 in0.0 mm
07:30 PM 52.2°F11.2°C 46.2°F7.9°C 80% 3.0 mph SW4.8 kmh SW 8.1 mph13.0 kmh 30.21 in1023.0 mb 0.00 in0.0 mm 0.00 in0.0 mm 0.00 in0.0 mm
07:45 PM 52.0°F11.1°C 46.0°F7.8°C 80% 2.0 mph SE3.2 kmh SE 8.1 mph13.0 kmh 30.21 in1023.0 mb 0.00 in0.0 mm 0.00 in0.0 mm 0.00 in0.0 mm
08:00 PM 52.2°F11.2°C 46.2°F7.9°C 80% 3.0 mph S4.8 kmh S 8.1 mph13.0 kmh 30.22 in1023.4 mb 0.00 in0.0 mm 0.00 in0.0 mm 0.00 in0.0 mm
08:15 PM 52.4°F11.3°C 46.4°F8.0°C 80% 7.0 mph SW11.3 kmh SW 10.1 mph16.3 kmh 30.21 in1023.0 mb 0.00 in0.0 mm 0.00 in0.0 mm 0.00 in0.0 mm
08:30 PM 52.5°F11.4°C 46.5°F8.1°C 80% 10.0 mph SW16.1 kmh SW 10.1 mph16.3 kmh 30.20 in1022.7 mb 0.00 in0.0 mm 0.00 in0.0 mm 0.00 in0.0 mm
08:45 PM 52.4°F11.3°C 46.4°F8.0°C 80% 5.0 mph SW8.0 kmh SW 9.1 mph14.6 kmh 30.20 in1022.7 mb 0.00 in0.0 mm 0.00 in0.0 mm 0.00 in0.0 mm
09:00 PM 52.4°F11.3°C 46.7°F8.2°C 81% 5.0 mph S8.0 kmh S 8.1 mph13.0 kmh 30.20 in1022.7 mb 0.00 in0.0 mm 0.00 in0.0 mm 0.00 in0.0 mm
09:15 PM 52.3°F11.3°C 46.6°F8.1°C 81% 3.0 mph SW4.8 kmh SW 7.1 mph11.4 kmh 30.18 in1022.0 mb 0.00 in0.0 mm 0.00 in0.0 mm 0.00 in0.0 mm
09:30 PM 52.4°F11.3°C 46.7°F8.2°C 81% 8.0 mph S12.9 kmh S 10.1 mph16.3 kmh 30.18 in1022.0 mb 0.00 in0.0 mm 0.00 in0.0 mm 0.00 in0.0 mm
09:45 PM 52.5°F11.4°C 46.8°F8.2°C 81% 3.0 mph SSW4.8 kmh SSW 10.1 mph16.3 kmh 30.18 in1022.0 mb 0.00 in0.0 mm 0.00 in0.0 mm 0.00 in0.0 mm
10:00 PM 52.6°F11.4°C 46.9°F8.3°C 81% 4.0 mph SW6.4 kmh SW 7.1 mph11.4 kmh 30.18 in1022.0 mb 0.00 in0.0 mm 0.00 in0.0 mm 0.00 in0.0 mm
10:15 PM 52.4°F11.3°C 46.7°F8.2°C 81% 9.0 mph SSW14.5 kmh SSW 10.1 mph16.3 kmh 30.17 in1021.7 mb 0.00 in0.0 mm 0.00 in0.0 mm 0.00 in0.0 mm
10:30 PM 52.4°F11.3°C 46.7°F8.2°C 81% 6.0 mph SSW9.7 kmh SSW 9.1 mph14.6 kmh 30.17 in1021.7 mb 0.00 in0.0 mm 0.00 in0.0 mm 0.00 in0.0 mm
10:45 PM 52.4°F11.3°C 46.7°F8.2°C 81% 6.0 mph SW9.7 kmh SW 7.1 mph11.4 kmh 30.17 in1021.7 mb 0.00 in0.0 mm 0.00 in0.0 mm 0.00 in0.0 mm
11:00 PM 52.4°F11.3°C 46.7°F8.2°C 81% 5.0 mph SW8.0 kmh SW 10.1 mph16.3 kmh 30.16 in1021.3 mb 0.00 in0.0 mm 0.00 in0.0 mm 0.00 in0.0 mm
11:15 PM 52.6°F11.4°C 46.9°F8.3°C 81% 7.0 mph SSW11.3 kmh SSW 13.1 mph21.1 kmh 30.15 in1021.0 mb 0.00 in0.0 mm 0.00 in0.0 mm 0.00 in0.0 mm
11:30 PM 52.8°F11.6°C 47.1°F8.4°C 81% 7.0 mph SSW11.3 kmh SSW 11.1 mph17.9 kmh 30.14 in1020.7 mb 0.00 in0.0 mm 0.00 in0.0 mm 0.00 in0.0 mm
11:45 PM 52.7°F11.5°C 47.3°F8.5°C 82% 8.0 mph SSW12.9 kmh SSW 8.1 mph13.0 kmh 30.15 in1021.0 mb 0.00 in0.0 mm 0.00 in0.0 mm 0.00 in0.0 mm